createdAt,value
2023-02-11T00:01:35.682Z,15.57
2023-02-11T00:04:04.334Z,15.43
2023-02-11T00:06:32.302Z,16.05
2023-02-11T00:08:59.582Z,15.32
2023-02-11T00:11:30.693Z,16.13
2023-02-11T00:14:03.566Z,15.88
2023-02-11T00:16:32.256Z,15.32
2023-02-11T00:19:00.473Z,13.65
2023-02-11T00:21:28.094Z,13.77
2023-02-11T00:23:57.200Z,15.10
2023-02-11T00:26:31.327Z,14.90
2023-02-11T00:28:59.065Z,15.13
2023-02-11T00:31:26.847Z,14.75
2023-02-11T00:33:54.308Z,13.43
2023-02-11T00:36:25.345Z,14.05
2023-02-11T00:38:53.680Z,14.57
2023-02-11T00:41:21.435Z,14.88
2023-02-11T00:43:48.726Z,13.98
2023-02-11T00:46:16.368Z,13.55
2023-02-11T00:48:43.659Z,15.15
2023-02-11T00:51:10.944Z,14.45
2023-02-11T00:53:38.330Z,15.00
2023-02-11T00:56:06.057Z,14.52
2023-02-11T00:58:33.698Z,14.35
2023-02-11T01:01:01.118Z,15.10
2023-02-11T01:03:28.329Z,14.15
2023-02-11T01:05:55.918Z,14.88
2023-02-11T01:08:22.985Z,14.75
2023-02-11T01:10:58.253Z,13.38
2023-02-11T01:13:26.012Z,13.52
2023-02-11T01:15:54.580Z,14.65
2023-02-11T01:18:21.897Z,14.55
2023-02-11T01:20:49.545Z,14.77
2023-02-11T01:23:17.090Z,14.60
2023-02-11T01:25:44.715Z,14.68
2023-02-11T01:28:24.464Z,14.27
2023-02-11T01:30:52.944Z,14.18
2023-02-11T01:33:20.788Z,14.70
2023-02-11T01:35:47.898Z,14.55
2023-02-11T01:38:18.010Z,13.77
2023-02-11T01:40:49.480Z,14.35
2023-02-11T01:43:16.766Z,14.23
2023-02-11T01:45:58.552Z,13.50
2023-02-11T01:48:40.381Z,13.45
2023-02-11T01:51:14.162Z,13.65
2023-02-11T01:54:00.658Z,12.27
2023-02-11T01:59:20.465Z,11.02
2023-02-11T02:01:53.109Z,11.07
2023-02-11T02:04:20.396Z,12.65
2023-02-11T02:07:09.415Z,12.75
2023-02-11T02:09:44.441Z,12.23
2023-02-11T02:12:11.676Z,11.00
2023-02-11T02:14:42.454Z,12.82
2023-02-11T02:17:29.004Z,13.02
2023-02-11T02:20:25.295Z,10.98
2023-02-11T02:22:55.103Z,12.05
2023-02-11T02:25:35.481Z,11.75
2023-02-11T02:28:17.988Z,11.93
2023-02-11T02:30:47.579Z,11.35
2023-02-11T02:33:23.461Z,12.27
2023-02-11T02:36:09.274Z,11.25
2023-02-11T02:38:50.695Z,11.48
2023-02-11T02:41:21.101Z,11.68
2023-02-11T02:43:51.796Z,11.95
2023-02-11T02:46:28.282Z,12.90
2023-02-11T02:48:56.554Z,11.60
2023-02-11T02:51:45.015Z,10.93
2023-02-11T02:54:38.035Z,12.52
2023-02-11T02:57:22.637Z,11.60
2023-02-11T03:00:08.854Z,12.07
2023-02-11T03:02:41.536Z,10.73
2023-02-11T03:05:14.392Z,12.23
2023-02-11T03:07:51.357Z,11.45
2023-02-11T03:10:32.460Z,11.75
2023-02-11T03:13:01.540Z,11.05
2023-02-11T03:15:32.466Z,12.20
2023-02-11T03:18:01.789Z,12.30
2023-02-11T03:20:32.974Z,11.63
2023-02-11T03:23:26.860Z,10.30
2023-02-11T03:26:01.585Z,11.27
2023-02-11T03:28:42.528Z,11.45
2023-02-11T03:31:21.837Z,12.30
2023-02-11T03:34:07.138Z,12.10
2023-02-11T03:36:48.239Z,11.55
2023-02-11T03:39:21.039Z,11.07
2023-02-11T03:41:49.979Z,11.02
2023-02-11T03:44:17.382Z,11.20
2023-02-11T03:46:50.472Z,12.18
2023-02-11T03:49:21.363Z,11.25
2023-02-11T03:51:51.716Z,12.10
2023-02-11T03:54:24.075Z,10.77
2023-02-11T03:56:57.519Z,11.55
2023-02-11T03:59:25.027Z,12.52
2023-02-11T04:01:52.567Z,12.07
2023-02-11T04:04:19.815Z,11.93
2023-02-11T04:06:46.614Z,11.98
2023-02-11T04:09:15.036Z,12.20
2023-02-11T04:11:42.349Z,11.48
2023-02-11T04:14:09.527Z,11.77
2023-02-11T04:16:36.366Z,13.05
2023-02-11T04:19:03.640Z,12.15
2023-02-11T04:21:30.810Z,12.07
2023-02-11T04:23:57.994Z,12.25
2023-02-11T04:26:24.815Z,11.88
2023-02-11T04:28:52.006Z,11.60
2023-02-11T04:31:19.294Z,11.60
2023-02-11T04:33:46.256Z,12.70
2023-02-11T04:36:13.604Z,11.57
2023-02-11T04:38:40.828Z,11.43
2023-02-11T04:41:08.018Z,11.50
2023-02-11T04:43:35.229Z,12.68
2023-02-11T04:46:02.458Z,12.30
2023-02-11T04:48:29.702Z,11.30
2023-02-11T04:50:56.935Z,12.77
2023-02-11T04:53:24.112Z,10.18
2023-02-11T04:55:51.652Z,11.88
2023-02-11T04:58:19.691Z,12.65
2023-02-11T05:00:47.120Z,14.10
2023-02-11T05:03:14.613Z,11.45
2023-02-11T05:05:42.725Z,13.25
2023-02-11T05:08:11.205Z,13.45
2023-02-11T05:10:38.643Z,11.43
2023-02-11T05:13:06.029Z,11.77
2023-02-11T05:15:33.407Z,12.05
2023-02-11T05:18:00.715Z,12.88
2023-02-11T05:20:28.084Z,12.40
2023-02-11T05:22:55.350Z,11.25
2023-02-11T05:25:22.550Z,11.65
2023-02-11T05:27:49.763Z,10.93
2023-02-11T05:30:17.005Z,10.55
2023-02-11T05:32:44.241Z,11.38
2023-02-11T05:35:11.601Z,11.50
2023-02-11T05:37:39.002Z,11.52
2023-02-11T05:40:06.519Z,11.13
2023-02-11T05:42:33.760Z,12.30
2023-02-11T05:45:00.641Z,11.25
2023-02-11T05:47:27.981Z,12.68
2023-02-11T05:49:54.871Z,11.50
2023-02-11T05:52:23.046Z,12.18
2023-02-11T05:54:50.183Z,10.43
2023-02-11T05:57:17.716Z,10.93
2023-02-11T05:59:44.942Z,11.18
2023-02-11T06:02:12.701Z,12.30
2023-02-11T06:04:39.976Z,11.55
2023-02-11T06:07:07.185Z,12.20
2023-02-11T06:09:34.415Z,11.32
2023-02-11T06:12:01.642Z,11.38
2023-02-11T06:14:28.515Z,10.65
2023-02-11T06:16:55.704Z,11.23
2023-02-11T06:19:22.458Z,10.93
2023-02-11T06:21:49.654Z,10.32
2023-02-11T06:24:28.534Z,10.80
2023-02-11T06:27:04.975Z,10.00
2023-02-11T06:29:31.800Z,10.68
2023-02-11T06:31:59.128Z,11.77
2023-02-11T06:34:26.393Z,11.48
2023-02-11T06:36:53.574Z,11.52
2023-02-11T06:39:20.808Z,10.65
2023-02-11T06:41:47.594Z,10.48
2023-02-11T06:44:14.385Z,11.50
2023-02-11T06:46:41.795Z,10.80
2023-02-11T06:49:09.181Z,9.95
2023-02-11T06:51:36.393Z,10.90
2023-02-11T06:54:05.419Z,11.02
2023-02-11T06:56:33.608Z,10.27
2023-02-11T06:59:00.996Z,10.70
2023-02-11T07:01:28.450Z,11.38
2023-02-11T07:03:55.345Z,10.48
2023-02-11T07:06:25.674Z,10.95
2023-02-11T07:08:52.872Z,11.30
2023-02-11T07:11:25.791Z,11.10
2023-02-11T07:13:55.280Z,10.63
2023-02-11T07:16:23.168Z,10.93
2023-02-11T07:18:50.440Z,11.43
2023-02-11T07:21:20.411Z,11.15
2023-02-11T07:23:48.664Z,10.55
2023-02-11T07:26:19.884Z,11.05
2023-02-11T07:28:47.573Z,10.25
2023-02-11T07:31:21.255Z,10.43
2023-02-11T07:33:50.147Z,10.45
2023-02-11T07:36:17.510Z,10.52
2023-02-11T07:38:45.207Z,11.48
2023-02-11T07:41:16.198Z,11.55
2023-02-11T07:43:44.397Z,11.60
2023-02-11T07:46:27.770Z,12.20
2023-02-11T07:48:55.665Z,12.43
2023-02-11T07:51:28.782Z,11.38
2023-02-11T07:53:57.747Z,11.27
2023-02-11T07:56:25.127Z,10.60
2023-02-11T07:58:52.907Z,11.82
2023-02-11T08:01:24.948Z,10.25
2023-02-11T08:03:52.685Z,10.60
2023-02-11T08:06:21.191Z,11.32
2023-02-11T08:08:48.629Z,12.57
2023-02-11T08:11:16.733Z,12.07
2023-02-11T08:13:44.366Z,11.38
2023-02-11T08:16:20.115Z,10.88
2023-02-11T08:18:47.384Z,11.68
2023-02-11T08:21:14.588Z,11.70
2023-02-11T08:23:43.354Z,11.85
2023-02-11T08:26:15.462Z,11.27
2023-02-11T08:28:44.711Z,11.90
2023-02-11T08:31:17.683Z,11.02
2023-02-11T08:33:45.327Z,11.13
2023-02-11T08:36:21.817Z,10.27
2023-02-11T08:38:49.024Z,11.55
2023-02-11T08:41:16.643Z,11.85
2023-02-11T08:43:44.845Z,12.45
2023-02-11T08:46:15.394Z,12.13
2023-02-11T08:48:42.984Z,12.55
2023-02-11T08:51:13.903Z,11.32
2023-02-11T08:53:40.880Z,11.70
2023-02-11T08:56:13.238Z,12.27
2023-02-11T08:58:40.933Z,11.80
2023-02-11T09:01:15.833Z,11.45
2023-02-11T09:03:43.146Z,12.48
2023-02-11T09:06:10.671Z,12.82
2023-02-11T09:08:39.404Z,11.25
2023-02-11T09:11:06.947Z,12.40
2023-02-11T09:13:34.211Z,12.73
2023-02-11T09:16:03.948Z,13.10
2023-02-11T09:18:31.393Z,13.10
2023-02-11T09:21:07.311Z,16.88
2023-02-11T09:23:34.601Z,13.70
2023-02-11T09:26:09.741Z,13.73
2023-02-11T09:28:36.722Z,13.15
2023-02-11T09:31:12.328Z,13.38
2023-02-11T09:33:42.189Z,13.13
2023-02-11T09:36:09.414Z,14.00
2023-02-11T09:38:36.689Z,12.68
2023-02-11T09:41:07.651Z,13.43
2023-02-11T09:43:45.198Z,12.18
2023-02-11T09:46:17.074Z,13.32
2023-02-11T09:48:47.843Z,12.80
2023-02-11T09:51:44.134Z,12.50
2023-02-11T09:54:28.286Z,12.85
2023-02-11T09:56:55.083Z,12.52
2023-02-11T09:59:22.416Z,11.32
2023-02-11T10:02:09.705Z,12.90
2023-02-11T10:05:23.034Z,13.32
2023-02-11T10:08:27.979Z,12.82
2023-02-11T10:11:31.210Z,12.73
2023-02-11T10:14:35.656Z,13.05
2023-02-11T10:17:02.913Z,12.45
2023-02-11T10:20:00.787Z,13.40
2023-02-11T10:22:49.437Z,11.88
2023-02-11T10:25:21.656Z,12.73
2023-02-11T10:27:49.733Z,12.93
2023-02-11T10:30:18.432Z,13.25
2023-02-11T10:32:59.727Z,13.25
2023-02-11T10:35:27.259Z,13.38
2023-02-11T10:37:57.753Z,12.45
2023-02-11T10:40:26.886Z,12.15
2023-02-11T10:42:57.304Z,13.80
2023-02-11T10:45:27.902Z,12.57
2023-02-11T10:47:55.435Z,12.20
2023-02-11T10:50:28.773Z,13.90
2023-02-11T10:53:24.459Z,13.15
2023-02-11T10:55:52.732Z,13.30
2023-02-11T10:58:30.773Z,12.80
2023-02-11T11:00:59.804Z,12.65
2023-02-11T11:03:32.161Z,11.93
2023-02-11T11:06:05.208Z,13.15
2023-02-11T11:08:49.572Z,12.75
2023-02-11T11:11:22.669Z,11.93
2023-02-11T11:13:52.512Z,13.40
2023-02-11T11:16:19.805Z,12.77
2023-02-11T11:18:54.556Z,12.23
2023-02-11T11:21:28.735Z,12.30
2023-02-11T11:24:00.340Z,12.13
2023-02-11T11:26:43.384Z,12.20
2023-02-11T11:29:17.283Z,12.90
2023-02-11T11:31:55.035Z,13.68
2023-02-11T11:34:22.549Z,13.25
2023-02-11T11:36:50.574Z,12.35
2023-02-11T11:39:24.526Z,11.65
2023-02-11T11:41:53.908Z,11.02
2023-02-11T11:44:25.530Z,12.32
2023-02-11T11:47:11.210Z,12.32
2023-02-11T11:49:47.097Z,11.77
2023-02-11T11:52:26.642Z,11.70
2023-02-11T11:55:06.624Z,11.48
2023-02-11T11:57:37.316Z,11.65
2023-02-11T12:00:05.484Z,12.55
2023-02-11T12:02:33.440Z,13.50
2023-02-11T12:05:30.789Z,12.70
2023-02-11T12:08:12.230Z,12.52
2023-02-11T12:10:44.776Z,11.88
2023-02-11T12:13:39.471Z,12.70
2023-02-11T12:16:07.214Z,11.80
2023-02-11T12:18:57.137Z,12.25
2023-02-11T12:21:24.357Z,11.60
2023-02-11T12:23:54.236Z,13.07
2023-02-11T12:26:47.920Z,13.73
2023-02-11T12:29:35.540Z,12.30
2023-02-11T12:32:10.555Z,13.27
2023-02-11T12:34:57.344Z,9.73
2023-02-11T12:43:09.688Z,9.82
2023-02-11T12:45:55.490Z,11.02
2023-02-11T12:48:41.193Z,11.38
2023-02-11T12:51:28.719Z,11.33
2023-02-11T12:54:16.857Z,11.35
2023-02-11T12:57:23.088Z,12.45
2023-02-11T13:00:06.958Z,12.52
2023-02-11T13:02:34.329Z,11.73
2023-02-11T13:05:27.184Z,12.18
2023-02-11T13:08:16.532Z,11.32
2023-02-11T13:10:50.454Z,11.40
2023-02-11T13:13:31.905Z,10.90
2023-02-11T13:16:21.564Z,11.13
2023-02-11T13:19:17.820Z,12.02
2023-02-11T13:22:29.653Z,12.30
2023-02-11T13:25:18.025Z,10.45
2023-02-11T13:28:20.082Z,11.40
2023-02-11T13:30:52.285Z,11.30
2023-02-11T13:33:31.340Z,11.45
2023-02-11T13:35:58.742Z,11.40
2023-02-11T13:38:28.886Z,11.05
2023-02-11T13:41:04.827Z,12.23
2023-02-11T13:43:34.405Z,12.00
2023-02-11T13:46:06.836Z,12.20
2023-02-11T13:48:40.482Z,11.13
2023-02-11T13:51:11.120Z,11.93
2023-02-11T13:53:58.120Z,11.77
2023-02-11T13:56:37.153Z,11.05
2023-02-11T13:59:33.009Z,11.57
2023-02-11T14:02:19.341Z,11.88
2023-02-11T14:05:27.876Z,11.38
2023-02-11T14:08:28.603Z,11.48
2023-02-11T14:10:55.900Z,11.50
2023-02-11T14:13:28.320Z,12.13
2023-02-11T14:16:06.036Z,11.73
2023-02-11T14:18:44.651Z,11.27
2023-02-11T14:21:27.305Z,12.43
2023-02-11T14:24:14.480Z,10.88
2023-02-11T14:26:56.741Z,11.50
2023-02-11T14:29:44.913Z,11.20
2023-02-11T14:32:12.146Z,11.70
2023-02-11T14:34:50.981Z,11.70
2023-02-11T14:37:36.668Z,11.80
2023-02-11T14:40:39.205Z,12.38
2023-02-11T14:43:16.759Z,11.43
2023-02-11T14:45:48.168Z,11.23
2023-02-11T14:48:17.514Z,10.52
2023-02-11T14:51:00.405Z,11.77
2023-02-11T14:53:30.521Z,12.45
2023-02-11T14:55:58.034Z,12.25
2023-02-11T14:58:27.849Z,11.23
2023-02-11T15:01:06.537Z,11.13
2023-02-11T15:03:36.558Z,11.00
2023-02-11T15:06:16.335Z,10.60
2023-02-11T15:08:55.135Z,10.20
2023-02-11T15:11:25.007Z,10.40
2023-02-11T15:13:55.251Z,10.73
2023-02-11T15:16:27.300Z,11.25
2023-02-11T15:19:02.633Z,9.98
2023-02-11T15:21:33.398Z,9.73
2023-02-11T15:24:06.475Z,9.85
2023-02-11T15:26:33.591Z,10.82
2023-02-11T15:29:00.866Z,9.55
2023-02-11T15:31:28.479Z,10.18
2023-02-11T15:33:55.685Z,13.05
2023-02-11T15:36:36.271Z,13.02
2023-02-11T15:39:34.745Z,14.65
2023-02-11T15:42:20.115Z,11.38
2023-02-11T15:44:54.353Z,10.88
2023-02-11T15:47:29.891Z,9.50
2023-02-11T15:49:57.108Z,10.10
2023-02-11T15:52:26.322Z,9.63
2023-02-11T15:54:55.928Z,10.20
2023-02-11T15:57:23.199Z,10.88
2023-02-11T15:59:53.119Z,9.75
2023-02-11T16:02:20.791Z,10.23
2023-02-11T16:04:59.192Z,9.77
2023-02-11T16:07:38.304Z,9.85
2023-02-11T16:10:05.947Z,10.23
2023-02-11T16:12:33.031Z,10.43
2023-02-11T16:15:03.878Z,11.30
2023-02-11T16:17:31.122Z,9.48
2023-02-11T16:19:58.338Z,9.93
2023-02-11T16:22:28.877Z,9.38
2023-02-11T16:24:59.193Z,10.50
2023-02-11T16:27:39.673Z,10.68
2023-02-11T16:30:20.805Z,11.00
2023-02-11T16:32:47.990Z,9.60
2023-02-11T16:35:15.236Z,10.25
2023-02-11T16:37:42.410Z,12.43
2023-02-11T16:40:11.872Z,14.38
2023-02-11T16:42:39.802Z,12.00
2023-02-11T16:45:07.181Z,10.15
2023-02-11T16:47:35.870Z,11.25
2023-02-11T16:50:04.451Z,9.55
2023-02-11T16:52:31.792Z,10.00
2023-02-11T16:54:59.620Z,10.25
2023-02-11T16:57:29.888Z,9.93
2023-02-11T16:59:59.023Z,9.98
2023-02-11T17:02:33.401Z,9.32
2023-02-11T17:05:03.418Z,10.00
2023-02-11T17:07:30.704Z,9.85
2023-02-11T17:09:58.064Z,9.23
2023-02-11T17:12:25.546Z,9.85
2023-02-11T17:14:53.123Z,10.02
2023-02-11T17:17:22.027Z,10.52
2023-02-11T17:19:49.388Z,10.00
2023-02-11T17:22:16.206Z,9.70
2023-02-11T17:24:43.414Z,9.40
2023-02-11T17:27:11.842Z,9.73
2023-02-11T17:29:39.140Z,10.48
2023-02-11T17:32:06.524Z,10.32
2023-02-11T17:34:33.779Z,10.50
2023-02-11T17:37:03.136Z,9.93
2023-02-11T17:39:30.365Z,9.30
2023-02-11T17:41:57.831Z,10.10
2023-02-11T17:44:25.397Z,9.18
2023-02-11T17:46:52.565Z,9.82
2023-02-11T17:49:20.356Z,9.85
2023-02-11T17:51:47.779Z,9.40
2023-02-11T17:54:17.368Z,8.75
2023-02-11T17:56:45.090Z,8.90
2023-02-11T17:59:13.314Z,9.85
2023-02-11T18:01:41.819Z,12.50
2023-02-11T18:04:14.462Z,10.32
2023-02-11T18:06:41.429Z,9.75
2023-02-11T18:09:08.215Z,9.00
2023-02-11T18:11:37.370Z,9.43
2023-02-11T18:14:07.713Z,8.48
2023-02-11T18:16:36.591Z,10.23
2023-02-11T18:19:04.387Z,9.05
2023-02-11T18:21:32.147Z,9.68
2023-02-11T18:24:05.873Z,9.23
2023-02-11T18:26:33.225Z,8.65
2023-02-11T18:29:00.689Z,8.75
2023-02-11T18:31:28.238Z,9.57
2023-02-11T18:33:55.103Z,9.25
2023-02-11T18:36:22.508Z,9.57
2023-02-11T18:38:49.962Z,9.57
2023-02-11T18:41:16.927Z,9.40
2023-02-11T18:43:44.209Z,9.07
2023-02-11T18:46:13.842Z,8.85
2023-02-11T18:48:41.603Z,9.60
2023-02-11T18:51:14.674Z,9.18
2023-02-11T18:53:42.413Z,9.45
2023-02-11T18:56:12.762Z,8.52
2023-02-11T18:58:40.037Z,9.80
2023-02-11T19:01:17.630Z,9.10
2023-02-11T19:03:45.263Z,8.50
2023-02-11T19:06:21.229Z,9.10
2023-02-11T19:08:48.557Z,9.50
2023-02-11T19:11:18.054Z,9.65
2023-02-11T19:13:47.920Z,8.70
2023-02-11T19:16:16.868Z,8.88
2023-02-11T19:18:44.648Z,9.27
2023-02-11T19:21:12.440Z,9.10
2023-02-11T19:23:39.883Z,9.65
2023-02-11T19:26:06.846Z,8.98
2023-02-11T19:28:35.433Z,8.98
2023-02-11T19:31:07.697Z,9.18
2023-02-11T19:33:35.402Z,11.73
2023-02-11T19:36:09.718Z,10.57
2023-02-11T19:38:36.890Z,10.70
2023-02-11T19:41:05.226Z,9.98
2023-02-11T19:43:32.012Z,9.13
2023-02-11T19:45:59.349Z,9.27
2023-02-11T19:48:26.650Z,8.80
2023-02-11T19:50:54.596Z,8.95
2023-02-11T19:53:22.032Z,9.15
2023-02-11T19:55:49.903Z,8.60
2023-02-11T19:58:17.701Z,9.25
2023-02-11T20:00:44.941Z,8.30
2023-02-11T20:03:12.270Z,9.05
2023-02-11T20:05:46.980Z,8.65
2023-02-11T20:08:16.974Z,8.02
2023-02-11T20:10:43.759Z,8.88
2023-02-11T20:13:10.941Z,8.77
2023-02-11T20:15:37.810Z,8.68
2023-02-11T20:18:05.119Z,9.00
2023-02-11T20:20:31.979Z,8.55
2023-02-11T20:22:59.243Z,8.10
2023-02-11T20:25:26.063Z,8.90
2023-02-11T20:27:52.913Z,8.55
2023-02-11T20:30:21.721Z,8.55
2023-02-11T20:32:48.929Z,8.77
2023-02-11T20:35:16.178Z,9.82
2023-02-11T20:37:44.242Z,9.68
2023-02-11T20:40:11.548Z,7.93
2023-02-11T20:42:38.846Z,9.25
2023-02-11T20:45:06.154Z,10.20
2023-02-11T20:47:33.480Z,10.48
2023-02-11T20:50:00.837Z,8.73
2023-02-11T20:52:28.706Z,9.88
2023-02-11T20:54:55.689Z,10.32
2023-02-11T20:57:22.949Z,10.15
2023-02-11T20:59:50.164Z,10.75
2023-02-11T21:02:17.442Z,10.32
2023-02-11T21:04:44.381Z,10.52
2023-02-11T21:07:11.582Z,11.18
2023-02-11T21:09:39.616Z,9.70
2023-02-11T21:12:07.809Z,9.15
2023-02-11T21:14:35.120Z,9.25
2023-02-11T21:17:02.401Z,9.98
2023-02-11T21:19:29.725Z,9.13
2023-02-11T21:22:00.496Z,9.40
2023-02-11T21:24:28.093Z,8.85
2023-02-11T21:26:54.984Z,8.10
2023-02-11T21:29:22.315Z,8.90
2023-02-11T21:31:49.889Z,9.35
2023-02-11T21:34:17.292Z,10.40
2023-02-11T21:36:45.328Z,9.60
2023-02-11T21:39:13.750Z,10.75
2023-02-11T21:41:40.604Z,10.20
2023-02-11T21:44:07.579Z,10.02
2023-02-11T21:46:34.898Z,8.75
2023-02-11T21:49:02.305Z,8.88
2023-02-11T21:51:29.345Z,9.52
2023-02-11T21:53:58.951Z,9.65
2023-02-11T21:56:29.671Z,9.38
2023-02-11T21:58:58.772Z,8.95
2023-02-11T22:01:28.932Z,8.63
2023-02-11T22:03:56.633Z,8.38
2023-02-11T22:06:31.339Z,8.02
2023-02-11T22:09:00.350Z,7.60
2023-02-11T22:11:27.123Z,8.30
2023-02-11T22:13:56.280Z,9.02
2023-02-11T22:16:24.345Z,8.50
2023-02-11T22:18:51.662Z,7.78
2023-02-11T22:21:22.044Z,8.90
2023-02-11T22:23:49.395Z,7.72
2023-02-11T22:26:21.796Z,8.10
2023-02-11T22:28:50.319Z,7.78
2023-02-11T22:31:20.471Z,8.05
2023-02-11T22:33:47.879Z,7.65
2023-02-11T22:36:24.436Z,8.13
2023-02-11T22:38:51.906Z,8.27
2023-02-11T22:41:19.755Z,8.57
2023-02-11T22:43:46.965Z,7.38
2023-02-11T22:46:16.761Z,7.43
2023-02-11T22:48:44.080Z,7.20
2023-02-11T22:51:16.721Z,6.70
2023-02-11T22:53:44.480Z,7.25
2023-02-11T22:56:15.349Z,7.32
2023-02-11T22:58:43.150Z,7.70
2023-02-11T23:01:10.519Z,6.63
2023-02-11T23:03:37.347Z,6.18
2023-02-11T23:06:04.685Z,5.93
2023-02-11T23:08:32.327Z,6.65
2023-02-11T23:11:10.838Z,6.30
2023-02-11T23:13:39.819Z,6.78
2023-02-11T23:16:09.029Z,6.00
2023-02-11T23:18:37.104Z,5.88
2023-02-11T23:21:06.715Z,6.50
2023-02-11T23:23:34.236Z,6.18
2023-02-11T23:26:01.629Z,6.53
2023-02-11T23:28:29.110Z,6.28
2023-02-11T23:30:56.401Z,6.97
2023-02-11T23:33:23.943Z,6.47
2023-02-11T23:35:50.892Z,6.50
2023-02-11T23:38:18.170Z,6.55
2023-02-11T23:40:45.370Z,6.43
2023-02-11T23:43:12.559Z,6.28
2023-02-11T23:45:39.341Z,6.63
2023-02-11T23:48:06.176Z,6.25
2023-02-11T23:50:33.838Z,5.90
2023-02-11T23:53:01.354Z,6.10
2023-02-11T23:55:28.583Z,5.90
2023-02-11T23:57:55.786Z,5.82
